sensor_id;sensor_type;location;lat;lon;timestamp;P1;durP1;ratioP1;P2;durP2;ratioP2
57826;SDS011;43656;57.746;11.780;2023-02-18T00:01:15;18.65;;;4.20;;
57826;SDS011;43656;57.746;11.780;2023-02-18T00:03:42;18.10;;;3.65;;
57826;SDS011;43656;57.746;11.780;2023-02-18T00:06:12;14.55;;;3.80;;
57826;SDS011;43656;57.746;11.780;2023-02-18T00:08:40;23.50;;;4.50;;
57826;SDS011;43656;57.746;11.780;2023-02-18T00:11:06;27.52;;;5.35;;
57826;SDS011;43656;57.746;11.780;2023-02-18T00:13:33;28.50;;;4.95;;
57826;SDS011;43656;57.746;11.780;2023-02-18T00:16:02;22.92;;;3.92;;
57826;SDS011;43656;57.746;11.780;2023-02-18T00:18:28;26.23;;;4.93;;
57826;SDS011;43656;57.746;11.780;2023-02-18T00:20:53;26.65;;;5.55;;
57826;SDS011;43656;57.746;11.780;2023-02-18T00:23:19;28.92;;;5.72;;
57826;SDS011;43656;57.746;11.780;2023-02-18T00:25:44;27.42;;;5.78;;
57826;SDS011;43656;57.746;11.780;2023-02-18T00:28:09;23.77;;;5.03;;
57826;SDS011;43656;57.746;11.780;2023-02-18T00:30:38;30.30;;;5.05;;
57826;SDS011;43656;57.746;11.780;2023-02-18T00:33:07;23.98;;;3.92;;
57826;SDS011;43656;57.746;11.780;2023-02-18T00:35:33;22.58;;;5.75;;
57826;SDS011;43656;57.746;11.780;2023-02-18T00:37:59;25.83;;;5.03;;
57826;SDS011;43656;57.746;11.780;2023-02-18T00:40:24;27.70;;;5.70;;
57826;SDS011;43656;57.746;11.780;2023-02-18T00:42:50;25.85;;;4.45;;
57826;SDS011;43656;57.746;11.780;2023-02-18T00:45:15;21.15;;;4.82;;
57826;SDS011;43656;57.746;11.780;2023-02-18T00:47:41;25.70;;;6.63;;
57826;SDS011;43656;57.746;11.780;2023-02-18T00:50:06;18.92;;;4.35;;
57826;SDS011;43656;57.746;11.780;2023-02-18T00:52:33;24.38;;;5.15;;
57826;SDS011;43656;57.746;11.780;2023-02-18T00:54:58;26.20;;;6.78;;
57826;SDS011;43656;57.746;11.780;2023-02-18T00:57:24;26.20;;;4.82;;
57826;SDS011;43656;57.746;11.780;2023-02-18T00:59:49;20.95;;;4.82;;
57826;SDS011;43656;57.746;11.780;2023-02-18T01:02:14;29.35;;;4.35;;
57826;SDS011;43656;57.746;11.780;2023-02-18T01:04:40;18.73;;;4.07;;
57826;SDS011;43656;57.746;11.780;2023-02-18T01:07:05;31.08;;;4.90;;
57826;SDS011;43656;57.746;11.780;2023-02-18T01:09:31;23.65;;;4.90;;
57826;SDS011;43656;57.746;11.780;2023-02-18T01:11:57;23.60;;;5.38;;
57826;SDS011;43656;57.746;11.780;2023-02-18T01:14:23;17.77;;;4.75;;
57826;SDS011;43656;57.746;11.780;2023-02-18T01:16:48;21.70;;;4.88;;
57826;SDS011;43656;57.746;11.780;2023-02-18T01:19:13;22.25;;;4.93;;
57826;SDS011;43656;57.746;11.780;2023-02-18T01:21:39;22.73;;;5.32;;
57826;SDS011;43656;57.746;11.780;2023-02-18T01:24:04;24.17;;;6.05;;
57826;SDS011;43656;57.746;11.780;2023-02-18T01:26:30;24.88;;;5.80;;
57826;SDS011;43656;57.746;11.780;2023-02-18T01:28:55;23.27;;;6.40;;
57826;SDS011;43656;57.746;11.780;2023-02-18T01:31:21;22.15;;;5.18;;
57826;SDS011;43656;57.746;11.780;2023-02-18T01:33:46;24.00;;;4.95;;
57826;SDS011;43656;57.746;11.780;2023-02-18T01:36:12;26.65;;;6.05;;
57826;SDS011;43656;57.746;11.780;2023-02-18T01:38:37;27.77;;;4.43;;
57826;SDS011;43656;57.746;11.780;2023-02-18T01:41:04;24.58;;;5.18;;
57826;SDS011;43656;57.746;11.780;2023-02-18T01:43:29;26.83;;;4.50;;
57826;SDS011;43656;57.746;11.780;2023-02-18T01:48:31;22.98;;;4.82;;
57826;SDS011;43656;57.746;11.780;2023-02-18T01:53:32;21.45;;;4.55;;
57826;SDS011;43656;57.746;11.780;2023-02-18T01:56:02;21.02;;;3.92;;
57826;SDS011;43656;57.746;11.780;2023-02-18T01:58:31;19.67;;;4.30;;
57826;SDS011;43656;57.746;11.780;2023-02-18T02:00:57;20.90;;;5.13;;
57826;SDS011;43656;57.746;11.780;2023-02-18T02:03:23;20.25;;;4.15;;
57826;SDS011;43656;57.746;11.780;2023-02-18T02:05:48;23.50;;;4.25;;
57826;SDS011;43656;57.746;11.780;2023-02-18T02:08:13;18.90;;;5.30;;
57826;SDS011;43656;57.746;11.780;2023-02-18T02:13:34;24.63;;;4.43;;
57826;SDS011;43656;57.746;11.780;2023-02-18T02:19:10;19.15;;;4.15;;
57826;SDS011;43656;57.746;11.780;2023-02-18T02:22:50;18.85;;;4.03;;
57826;SDS011;43656;57.746;11.780;2023-02-18T02:24:59;20.92;;;4.32;;
57826;SDS011;43656;57.746;11.780;2023-02-18T02:38:49;15.95;;;3.05;;
57826;SDS011;43656;57.746;11.780;2023-02-18T02:41:24;21.92;;;5.68;;
57826;SDS011;43656;57.746;11.780;2023-02-18T02:44:05;17.30;;;2.80;;
57826;SDS011;43656;57.746;11.780;2023-02-18T02:46:46;20.77;;;4.05;;
57826;SDS011;43656;57.746;11.780;2023-02-18T02:52:18;19.42;;;3.35;;
57826;SDS011;43656;57.746;11.780;2023-02-18T02:54:48;17.98;;;3.47;;
57826;SDS011;43656;57.746;11.780;2023-02-18T02:59:42;23.70;;;4.47;;
57826;SDS011;43656;57.746;11.780;2023-02-18T03:02:18;17.02;;;3.10;;
57826;SDS011;43656;57.746;11.780;2023-02-18T03:05:07;27.52;;;4.65;;
57826;SDS011;43656;57.746;11.780;2023-02-18T03:11:09;16.38;;;2.97;;
57826;SDS011;43656;57.746;11.780;2023-02-18T03:13:47;19.17;;;3.25;;
57826;SDS011;43656;57.746;11.780;2023-02-18T03:18:43;18.45;;;2.72;;
57826;SDS011;43656;57.746;11.780;2023-02-18T03:24:07;17.85;;;2.63;;
57826;SDS011;43656;57.746;11.780;2023-02-18T03:26:39;20.88;;;3.38;;
57826;SDS011;43656;57.746;11.780;2023-02-18T03:29:10;23.35;;;3.70;;
57826;SDS011;43656;57.746;11.780;2023-02-18T03:31:39;16.48;;;2.95;;
57826;SDS011;43656;57.746;11.780;2023-02-18T03:34:19;15.38;;;2.30;;
57826;SDS011;43656;57.746;11.780;2023-02-18T03:36:49;23.23;;;2.88;;
57826;SDS011;43656;57.746;11.780;2023-02-18T03:39:18;18.95;;;2.90;;
57826;SDS011;43656;57.746;11.780;2023-02-18T03:41:46;13.25;;;2.20;;
57826;SDS011;43656;57.746;11.780;2023-02-18T03:44:13;17.83;;;2.92;;
57826;SDS011;43656;57.746;11.780;2023-02-18T03:46:39;21.35;;;3.55;;
57826;SDS011;43656;57.746;11.780;2023-02-18T03:49:13;16.00;;;3.42;;
57826;SDS011;43656;57.746;11.780;2023-02-18T03:51:39;16.08;;;3.08;;
57826;SDS011;43656;57.746;11.780;2023-02-18T03:54:05;14.07;;;3.15;;
57826;SDS011;43656;57.746;11.780;2023-02-18T03:56:32;15.15;;;3.10;;
57826;SDS011;43656;57.746;11.780;2023-02-18T03:58:58;16.33;;;2.40;;
57826;SDS011;43656;57.746;11.780;2023-02-18T04:01:23;16.38;;;3.03;;
57826;SDS011;43656;57.746;11.780;2023-02-18T04:03:49;15.43;;;3.25;;
57826;SDS011;43656;57.746;11.780;2023-02-18T04:06:14;17.70;;;3.90;;
57826;SDS011;43656;57.746;11.780;2023-02-18T04:08:39;19.90;;;3.05;;
57826;SDS011;43656;57.746;11.780;2023-02-18T04:11:05;16.90;;;2.97;;
57826;SDS011;43656;57.746;11.780;2023-02-18T04:13:30;22.77;;;3.25;;
57826;SDS011;43656;57.746;11.780;2023-02-18T04:15:56;17.10;;;2.63;;
57826;SDS011;43656;57.746;11.780;2023-02-18T04:18:21;15.45;;;3.35;;
57826;SDS011;43656;57.746;11.780;2023-02-18T04:20:47;11.43;;;2.22;;
57826;SDS011;43656;57.746;11.780;2023-02-18T04:23:15;17.35;;;2.80;;
57826;SDS011;43656;57.746;11.780;2023-02-18T04:25:40;12.93;;;1.98;;
57826;SDS011;43656;57.746;11.780;2023-02-18T04:28:06;18.63;;;3.03;;
57826;SDS011;43656;57.746;11.780;2023-02-18T04:30:31;15.30;;;2.35;;
57826;SDS011;43656;57.746;11.780;2023-02-18T04:32:57;14.57;;;2.35;;
57826;SDS011;43656;57.746;11.780;2023-02-18T04:35:22;19.30;;;2.88;;
57826;SDS011;43656;57.746;11.780;2023-02-18T04:37:48;18.88;;;3.45;;
57826;SDS011;43656;57.746;11.780;2023-02-18T04:40:14;16.85;;;2.35;;
57826;SDS011;43656;57.746;11.780;2023-02-18T04:42:40;14.82;;;2.50;;
57826;SDS011;43656;57.746;11.780;2023-02-18T04:45:05;19.33;;;3.03;;
57826;SDS011;43656;57.746;11.780;2023-02-18T04:47:31;19.02;;;3.50;;
57826;SDS011;43656;57.746;11.780;2023-02-18T04:49:56;10.30;;;2.33;;
57826;SDS011;43656;57.746;11.780;2023-02-18T04:52:22;18.45;;;3.13;;
57826;SDS011;43656;57.746;11.780;2023-02-18T04:54:47;33.80;;;2.50;;
57826;SDS011;43656;57.746;11.780;2023-02-18T04:57:13;18.92;;;2.88;;
57826;SDS011;43656;57.746;11.780;2023-02-18T04:59:39;22.17;;;3.42;;
57826;SDS011;43656;57.746;11.780;2023-02-18T05:02:05;24.67;;;3.03;;
57826;SDS011;43656;57.746;11.780;2023-02-18T05:04:31;21.30;;;3.60;;
57826;SDS011;43656;57.746;11.780;2023-02-18T05:06:56;15.80;;;2.80;;
57826;SDS011;43656;57.746;11.780;2023-02-18T05:09:22;16.17;;;2.92;;
57826;SDS011;43656;57.746;11.780;2023-02-18T05:11:48;13.60;;;2.03;;
57826;SDS011;43656;57.746;11.780;2023-02-18T05:14:13;21.55;;;3.28;;
57826;SDS011;43656;57.746;11.780;2023-02-18T05:16:39;14.35;;;2.47;;
57826;SDS011;43656;57.746;11.780;2023-02-18T05:19:04;13.27;;;2.47;;
57826;SDS011;43656;57.746;11.780;2023-02-18T05:21:30;20.45;;;2.53;;
57826;SDS011;43656;57.746;11.780;2023-02-18T05:23:56;17.50;;;3.17;;
57826;SDS011;43656;57.746;11.780;2023-02-18T05:26:21;21.23;;;3.80;;
57826;SDS011;43656;57.746;11.780;2023-02-18T05:28:46;20.98;;;3.85;;
57826;SDS011;43656;57.746;11.780;2023-02-18T05:31:12;33.88;;;4.38;;
57826;SDS011;43656;57.746;11.780;2023-02-18T05:33:37;21.15;;;3.95;;
57826;SDS011;43656;57.746;11.780;2023-02-18T05:36:03;22.88;;;3.53;;
57826;SDS011;43656;57.746;11.780;2023-02-18T05:38:28;24.92;;;4.13;;
57826;SDS011;43656;57.746;11.780;2023-02-18T05:40:54;18.60;;;2.42;;
57826;SDS011;43656;57.746;11.780;2023-02-18T05:43:19;22.63;;;2.90;;
57826;SDS011;43656;57.746;11.780;2023-02-18T05:45:45;18.80;;;2.63;;
57826;SDS011;43656;57.746;11.780;2023-02-18T05:48:10;20.73;;;2.88;;
57826;SDS011;43656;57.746;11.780;2023-02-18T05:50:36;21.98;;;4.03;;
57826;SDS011;43656;57.746;11.780;2023-02-18T05:53:01;20.50;;;4.18;;
57826;SDS011;43656;57.746;11.780;2023-02-18T05:55:27;20.27;;;3.10;;
57826;SDS011;43656;57.746;11.780;2023-02-18T05:57:52;13.52;;;2.90;;
57826;SDS011;43656;57.746;11.780;2023-02-18T06:00:18;18.33;;;2.75;;
57826;SDS011;43656;57.746;11.780;2023-02-18T06:02:44;24.27;;;3.80;;
57826;SDS011;43656;57.746;11.780;2023-02-18T06:05:09;13.20;;;2.42;;
57826;SDS011;43656;57.746;11.780;2023-02-18T06:07:35;15.63;;;2.55;;
57826;SDS011;43656;57.746;11.780;2023-02-18T06:10:01;17.48;;;2.33;;
57826;SDS011;43656;57.746;11.780;2023-02-18T06:12:27;16.23;;;2.50;;
57826;SDS011;43656;57.746;11.780;2023-02-18T06:14:53;18.65;;;2.85;;
57826;SDS011;43656;57.746;11.780;2023-02-18T06:17:19;18.52;;;2.95;;
57826;SDS011;43656;57.746;11.780;2023-02-18T06:19:46;15.13;;;3.05;;
57826;SDS011;43656;57.746;11.780;2023-02-18T06:22:12;18.63;;;2.90;;
57826;SDS011;43656;57.746;11.780;2023-02-18T06:24:38;21.08;;;3.83;;
57826;SDS011;43656;57.746;11.780;2023-02-18T06:27:04;20.33;;;3.20;;
57826;SDS011;43656;57.746;11.780;2023-02-18T06:29:29;22.75;;;2.67;;
57826;SDS011;43656;57.746;11.780;2023-02-18T06:31:56;20.73;;;2.80;;
57826;SDS011;43656;57.746;11.780;2023-02-18T06:34:25;14.93;;;2.10;;
57826;SDS011;43656;57.746;11.780;2023-02-18T06:36:51;19.85;;;3.53;;
57826;SDS011;43656;57.746;11.780;2023-02-18T06:39:17;14.77;;;2.20;;
57826;SDS011;43656;57.746;11.780;2023-02-18T06:41:42;8.35;;;1.60;;
57826;SDS011;43656;57.746;11.780;2023-02-18T06:44:08;18.05;;;2.88;;
57826;SDS011;43656;57.746;11.780;2023-02-18T06:46:33;19.58;;;2.78;;
57826;SDS011;43656;57.746;11.780;2023-02-18T06:48:59;22.00;;;3.70;;
57826;SDS011;43656;57.746;11.780;2023-02-18T06:51:24;20.02;;;3.70;;
57826;SDS011;43656;57.746;11.780;2023-02-18T06:53:50;18.80;;;2.38;;
57826;SDS011;43656;57.746;11.780;2023-02-18T06:56:15;18.52;;;2.75;;
57826;SDS011;43656;57.746;11.780;2023-02-18T06:58:41;18.13;;;2.60;;
57826;SDS011;43656;57.746;11.780;2023-02-18T07:01:06;15.98;;;2.47;;
57826;SDS011;43656;57.746;11.780;2023-02-18T07:03:32;17.23;;;2.15;;
57826;SDS011;43656;57.746;11.780;2023-02-18T07:05:57;18.48;;;2.75;;
57826;SDS011;43656;57.746;11.780;2023-02-18T07:08:23;12.85;;;1.60;;
57826;SDS011;43656;57.746;11.780;2023-02-18T07:10:48;18.17;;;2.20;;
57826;SDS011;43656;57.746;11.780;2023-02-18T07:13:14;17.60;;;2.50;;
57826;SDS011;43656;57.746;11.780;2023-02-18T07:15:40;18.02;;;2.40;;
57826;SDS011;43656;57.746;11.780;2023-02-18T07:18:06;17.08;;;2.92;;
57826;SDS011;43656;57.746;11.780;2023-02-18T07:20:31;12.40;;;1.80;;
57826;SDS011;43656;57.746;11.780;2023-02-18T07:22:57;15.10;;;2.88;;
57826;SDS011;43656;57.746;11.780;2023-02-18T07:25:22;12.57;;;2.45;;
57826;SDS011;43656;57.746;11.780;2023-02-18T07:27:48;13.93;;;2.35;;
57826;SDS011;43656;57.746;11.780;2023-02-18T07:30:14;11.75;;;2.22;;
57826;SDS011;43656;57.746;11.780;2023-02-18T07:32:40;16.27;;;2.58;;
57826;SDS011;43656;57.746;11.780;2023-02-18T07:35:06;15.88;;;2.35;;
57826;SDS011;43656;57.746;11.780;2023-02-18T07:37:31;17.75;;;2.42;;
57826;SDS011;43656;57.746;11.780;2023-02-18T07:39:57;25.23;;;2.97;;
57826;SDS011;43656;57.746;11.780;2023-02-18T07:42:22;13.25;;;1.73;;
57826;SDS011;43656;57.746;11.780;2023-02-18T07:44:48;17.55;;;3.05;;
57826;SDS011;43656;57.746;11.780;2023-02-18T07:47:14;17.38;;;2.42;;
57826;SDS011;43656;57.746;11.780;2023-02-18T07:49:43;13.45;;;2.10;;
57826;SDS011;43656;57.746;11.780;2023-02-18T07:52:09;20.30;;;2.03;;
57826;SDS011;43656;57.746;11.780;2023-02-18T07:54:35;13.20;;;1.75;;
57826;SDS011;43656;57.746;11.780;2023-02-18T07:57:00;15.57;;;2.90;;
57826;SDS011;43656;57.746;11.780;2023-02-18T07:59:26;13.13;;;2.55;;
57826;SDS011;43656;57.746;11.780;2023-02-18T08:01:51;15.45;;;2.13;;
57826;SDS011;43656;57.746;11.780;2023-02-18T08:04:16;15.77;;;2.55;;
57826;SDS011;43656;57.746;11.780;2023-02-18T08:06:43;13.52;;;2.50;;
57826;SDS011;43656;57.746;11.780;2023-02-18T08:09:10;14.20;;;2.50;;
57826;SDS011;43656;57.746;11.780;2023-02-18T08:11:36;16.08;;;2.40;;
57826;SDS011;43656;57.746;11.780;2023-02-18T08:14:02;17.23;;;2.25;;
57826;SDS011;43656;57.746;11.780;2023-02-18T08:16:27;15.70;;;2.22;;
57826;SDS011;43656;57.746;11.780;2023-02-18T08:18:53;11.95;;;2.17;;
57826;SDS011;43656;57.746;11.780;2023-02-18T08:21:19;15.27;;;2.17;;
57826;SDS011;43656;57.746;11.780;2023-02-18T08:23:47;12.95;;;2.58;;
57826;SDS011;43656;57.746;11.780;2023-02-18T08:26:13;12.75;;;2.28;;
57826;SDS011;43656;57.746;11.780;2023-02-18T08:28:38;15.52;;;2.50;;
57826;SDS011;43656;57.746;11.780;2023-02-18T08:31:04;16.90;;;2.35;;
57826;SDS011;43656;57.746;11.780;2023-02-18T08:33:30;15.88;;;1.58;;
57826;SDS011;43656;57.746;11.780;2023-02-18T08:35:56;16.30;;;2.60;;
57826;SDS011;43656;57.746;11.780;2023-02-18T08:38:22;10.50;;;1.88;;
57826;SDS011;43656;57.746;11.780;2023-02-18T08:40:48;15.20;;;2.13;;
57826;SDS011;43656;57.746;11.780;2023-02-18T08:43:15;13.38;;;2.13;;
57826;SDS011;43656;57.746;11.780;2023-02-18T08:45:41;15.18;;;3.78;;
57826;SDS011;43656;57.746;11.780;2023-02-18T08:48:08;16.05;;;2.22;;
57826;SDS011;43656;57.746;11.780;2023-02-18T08:50:35;11.45;;;2.15;;
57826;SDS011;43656;57.746;11.780;2023-02-18T08:53:00;14.60;;;2.13;;
57826;SDS011;43656;57.746;11.780;2023-02-18T08:55:30;16.80;;;2.35;;
57826;SDS011;43656;57.746;11.780;2023-02-18T08:57:58;13.98;;;2.50;;
57826;SDS011;43656;57.746;11.780;2023-02-18T09:00:24;18.13;;;2.47;;
57826;SDS011;43656;57.746;11.780;2023-02-18T09:02:49;24.13;;;2.85;;
57826;SDS011;43656;57.746;11.780;2023-02-18T09:05:15;22.63;;;3.08;;
57826;SDS011;43656;57.746;11.780;2023-02-18T09:07:41;13.23;;;2.33;;
57826;SDS011;43656;57.746;11.780;2023-02-18T09:10:06;18.88;;;2.70;;
57826;SDS011;43656;57.746;11.780;2023-02-18T09:12:32;16.40;;;2.50;;
57826;SDS011;43656;57.746;11.780;2023-02-18T09:14:58;17.52;;;2.55;;
57826;SDS011;43656;57.746;11.780;2023-02-18T09:17:24;14.82;;;2.55;;
57826;SDS011;43656;57.746;11.780;2023-02-18T09:19:50;22.15;;;2.90;;
57826;SDS011;43656;57.746;11.780;2023-02-18T09:22:15;18.45;;;2.85;;
57826;SDS011;43656;57.746;11.780;2023-02-18T09:24:41;17.67;;;2.40;;
57826;SDS011;43656;57.746;11.780;2023-02-18T09:27:07;19.38;;;2.65;;
57826;SDS011;43656;57.746;11.780;2023-02-18T09:29:33;17.42;;;2.67;;
57826;SDS011;43656;57.746;11.780;2023-02-18T09:32:01;21.35;;;2.97;;
57826;SDS011;43656;57.746;11.780;2023-02-18T09:34:28;20.85;;;2.53;;
57826;SDS011;43656;57.746;11.780;2023-02-18T09:36:53;17.55;;;3.05;;
57826;SDS011;43656;57.746;11.780;2023-02-18T09:39:19;11.88;;;2.03;;
57826;SDS011;43656;57.746;11.780;2023-02-18T09:44:20;17.23;;;2.38;;
57826;SDS011;43656;57.746;11.780;2023-02-18T09:46:59;15.70;;;2.78;;
57826;SDS011;43656;57.746;11.780;2023-02-18T09:49:26;22.40;;;3.53;;
57826;SDS011;43656;57.746;11.780;2023-02-18T09:51:54;20.67;;;3.70;;
57826;SDS011;43656;57.746;11.780;2023-02-18T09:54:21;20.60;;;3.00;;
57826;SDS011;43656;57.746;11.780;2023-02-18T09:56:47;15.77;;;2.40;;
57826;SDS011;43656;57.746;11.780;2023-02-18T09:59:16;18.58;;;2.78;;
57826;SDS011;43656;57.746;11.780;2023-02-18T10:01:45;15.68;;;2.50;;
57826;SDS011;43656;57.746;11.780;2023-02-18T10:04:17;18.45;;;2.88;;
57826;SDS011;43656;57.746;11.780;2023-02-18T10:06:48;18.40;;;2.75;;
57826;SDS011;43656;57.746;11.780;2023-02-18T10:09:20;16.02;;;2.90;;
57826;SDS011;43656;57.746;11.780;2023-02-18T10:11:56;25.80;;;3.15;;
57826;SDS011;43656;57.746;11.780;2023-02-18T10:14:28;22.50;;;3.10;;
57826;SDS011;43656;57.746;11.780;2023-02-18T10:16:54;19.08;;;3.05;;
57826;SDS011;43656;57.746;11.780;2023-02-18T10:19:25;21.00;;;3.25;;
57826;SDS011;43656;57.746;11.780;2023-02-18T10:21:57;11.95;;;2.38;;
57826;SDS011;43656;57.746;11.780;2023-02-18T10:24:30;13.15;;;2.22;;
57826;SDS011;43656;57.746;11.780;2023-02-18T10:26:57;21.90;;;2.92;;
57826;SDS011;43656;57.746;11.780;2023-02-18T10:29:25;16.63;;;2.70;;
57826;SDS011;43656;57.746;11.780;2023-02-18T10:31:56;20.17;;;2.30;;
57826;SDS011;43656;57.746;11.780;2023-02-18T10:40:13;19.17;;;3.33;;
57826;SDS011;43656;57.746;11.780;2023-02-18T10:51:01;15.40;;;2.78;;
57826;SDS011;43656;57.746;11.780;2023-02-18T10:53:37;15.38;;;2.72;;
57826;SDS011;43656;57.746;11.780;2023-02-18T10:56:06;15.32;;;2.50;;
57826;SDS011;43656;57.746;11.780;2023-02-18T10:58:41;15.77;;;2.60;;
57826;SDS011;43656;57.746;11.780;2023-02-18T11:01:17;15.60;;;2.63;;
57826;SDS011;43656;57.746;11.780;2023-02-18T11:03:46;24.08;;;3.55;;
57826;SDS011;43656;57.746;11.780;2023-02-18T11:09:05;16.77;;;3.13;;
57826;SDS011;43656;57.746;11.780;2023-02-18T11:11:37;18.38;;;2.38;;
57826;SDS011;43656;57.746;11.780;2023-02-18T11:14:05;16.90;;;2.45;;
57826;SDS011;43656;57.746;11.780;2023-02-18T11:16:36;19.17;;;2.83;;
57826;SDS011;43656;57.746;11.780;2023-02-18T11:19:03;19.80;;;2.10;;
57826;SDS011;43656;57.746;11.780;2023-02-18T11:21:30;19.35;;;2.58;;
57826;SDS011;43656;57.746;11.780;2023-02-18T11:24:05;18.95;;;2.58;;
57826;SDS011;43656;57.746;11.780;2023-02-18T11:26:33;19.47;;;2.33;;
57826;SDS011;43656;57.746;11.780;2023-02-18T11:29:02;20.20;;;2.90;;
57826;SDS011;43656;57.746;11.780;2023-02-18T11:31:44;18.52;;;2.60;;
57826;SDS011;43656;57.746;11.780;2023-02-18T11:34:14;21.52;;;3.05;;
57826;SDS011;43656;57.746;11.780;2023-02-18T11:36:56;15.68;;;2.38;;
57826;SDS011;43656;57.746;11.780;2023-02-18T11:39:34;18.45;;;2.28;;
57826;SDS011;43656;57.746;11.780;2023-02-18T11:42:01;11.98;;;2.20;;
57826;SDS011;43656;57.746;11.780;2023-02-18T11:44:33;7.72;;;1.35;;
57826;SDS011;43656;57.746;11.780;2023-02-18T11:49:28;13.57;;;2.03;;
57826;SDS011;43656;57.746;11.780;2023-02-18T11:52:08;14.32;;;2.13;;
57826;SDS011;43656;57.746;11.780;2023-02-18T11:54:41;14.32;;;2.33;;
57826;SDS011;43656;57.746;11.780;2023-02-18T11:57:10;21.20;;;2.58;;
57826;SDS011;43656;57.746;11.780;2023-02-18T11:59:38;17.52;;;2.42;;
57826;SDS011;43656;57.746;11.780;2023-02-18T12:04:42;13.70;;;2.08;;
57826;SDS011;43656;57.746;11.780;2023-02-18T12:10:04;15.00;;;1.63;;
57826;SDS011;43656;57.746;11.780;2023-02-18T12:12:45;15.45;;;2.08;;
57826;SDS011;43656;57.746;11.780;2023-02-18T12:15:17;7.28;;;1.50;;
57826;SDS011;43656;57.746;11.780;2023-02-18T12:18:08;6.38;;;1.23;;
57826;SDS011;43656;57.746;11.780;2023-02-18T12:23:47;7.75;;;1.60;;
57826;SDS011;43656;57.746;11.780;2023-02-18T12:26:26;12.00;;;2.15;;
57826;SDS011;43656;57.746;11.780;2023-02-18T12:29:08;15.67;;;2.07;;
57826;SDS011;43656;57.746;11.780;2023-02-18T12:57:47;11.25;;;1.67;;
57826;SDS011;43656;57.746;11.780;2023-02-18T13:06:30;12.70;;;1.48;;
57826;SDS011;43656;57.746;11.780;2023-02-18T13:09:13;8.38;;;1.45;;
57826;SDS011;43656;57.746;11.780;2023-02-18T13:14:28;7.00;;;1.63;;
57826;SDS011;43656;57.746;11.780;2023-02-18T13:16:57;9.73;;;1.30;;
57826;SDS011;43656;57.746;11.780;2023-02-18T13:19:26;10.77;;;1.50;;
57826;SDS011;43656;57.746;11.780;2023-02-18T13:22:11;11.65;;;1.70;;
57826;SDS011;43656;57.746;11.780;2023-02-18T13:24:42;9.02;;;1.50;;
57826;SDS011;43656;57.746;11.780;2023-02-18T13:30:06;11.02;;;1.40;;
57826;SDS011;43656;57.746;11.780;2023-02-18T13:32:38;10.90;;;1.85;;
57826;SDS011;43656;57.746;11.780;2023-02-18T13:35:14;8.70;;;1.50;;
57826;SDS011;43656;57.746;11.780;2023-02-18T13:40:39;10.65;;;1.48;;
57826;SDS011;43656;57.746;11.780;2023-02-18T13:48:53;7.53;;;1.48;;
57826;SDS011;43656;57.746;11.780;2023-02-18T13:51:30;10.35;;;1.65;;
57826;SDS011;43656;57.746;11.780;2023-02-18T13:56:47;8.75;;;1.60;;
57826;SDS011;43656;57.746;11.780;2023-02-18T14:01:52;5.38;;;1.10;;
57826;SDS011;43656;57.746;11.780;2023-02-18T14:09:52;6.80;;;1.08;;
57826;SDS011;43656;57.746;11.780;2023-02-18T14:12:35;10.07;;;1.40;;
57826;SDS011;43656;57.746;11.780;2023-02-18T14:15:05;5.78;;;1.05;;
57826;SDS011;43656;57.746;11.780;2023-02-18T14:22:56;8.00;;;1.20;;
57826;SDS011;43656;57.746;11.780;2023-02-18T14:25:34;7.00;;;0.90;;
57826;SDS011;43656;57.746;11.780;2023-02-18T14:28:11;6.80;;;1.00;;
57826;SDS011;43656;57.746;11.780;2023-02-18T14:30:57;8.00;;;1.48;;
57826;SDS011;43656;57.746;11.780;2023-02-18T14:33:26;6.43;;;0.95;;
57826;SDS011;43656;57.746;11.780;2023-02-18T14:50:12;8.50;;;1.50;;
57826;SDS011;43656;57.746;11.780;2023-02-18T14:52:49;9.15;;;1.50;;
57826;SDS011;43656;57.746;11.780;2023-02-18T14:55:29;7.50;;;1.73;;
57826;SDS011;43656;57.746;11.780;2023-02-18T14:58:02;6.50;;;1.10;;
57826;SDS011;43656;57.746;11.780;2023-02-18T15:00:33;17.88;;;1.75;;
57826;SDS011;43656;57.746;11.780;2023-02-18T15:03:03;10.82;;;1.33;;
57826;SDS011;43656;57.746;11.780;2023-02-18T15:05:29;8.15;;;1.30;;
57826;SDS011;43656;57.746;11.780;2023-02-18T15:08:06;7.40;;;1.50;;
57826;SDS011;43656;57.746;11.780;2023-02-18T15:15:39;9.48;;;1.17;;
57826;SDS011;43656;57.746;11.780;2023-02-18T15:18:12;11.13;;;1.50;;
57826;SDS011;43656;57.746;11.780;2023-02-18T15:20:45;4.97;;;0.98;;
57826;SDS011;43656;57.746;11.780;2023-02-18T15:23:12;6.30;;;1.27;;
57826;SDS011;43656;57.746;11.780;2023-02-18T15:25:41;8.32;;;1.08;;
57826;SDS011;43656;57.746;11.780;2023-02-18T15:28:23;8.35;;;1.02;;
57826;SDS011;43656;57.746;11.780;2023-02-18T15:30:57;8.27;;;0.90;;
57826;SDS011;43656;57.746;11.780;2023-02-18T15:33:24;8.45;;;1.20;;
57826;SDS011;43656;57.746;11.780;2023-02-18T15:35:50;4.70;;;1.00;;
57826;SDS011;43656;57.746;11.780;2023-02-18T15:38:16;6.45;;;1.17;;
57826;SDS011;43656;57.746;11.780;2023-02-18T15:40:48;6.65;;;1.38;;
57826;SDS011;43656;57.746;11.780;2023-02-18T15:43:20;8.45;;;1.63;;
57826;SDS011;43656;57.746;11.780;2023-02-18T15:45:48;9.65;;;1.30;;
57826;SDS011;43656;57.746;11.780;2023-02-18T15:48:25;12.32;;;1.67;;
57826;SDS011;43656;57.746;11.780;2023-02-18T15:50:52;8.20;;;1.48;;
57826;SDS011;43656;57.746;11.780;2023-02-18T15:53:20;11.63;;;1.48;;
57826;SDS011;43656;57.746;11.780;2023-02-18T15:55:51;12.70;;;1.90;;
57826;SDS011;43656;57.746;11.780;2023-02-18T16:00:47;9.73;;;2.20;;
57826;SDS011;43656;57.746;11.780;2023-02-18T16:03:29;11.05;;;1.63;;
57826;SDS011;43656;57.746;11.780;2023-02-18T16:08:45;10.93;;;1.73;;
57826;SDS011;43656;57.746;11.780;2023-02-18T16:11:21;8.93;;;1.58;;
57826;SDS011;43656;57.746;11.780;2023-02-18T16:13:49;10.07;;;1.40;;
57826;SDS011;43656;57.746;11.780;2023-02-18T16:16:26;6.90;;;1.23;;
57826;SDS011;43656;57.746;11.780;2023-02-18T16:18:54;10.75;;;1.63;;
57826;SDS011;43656;57.746;11.780;2023-02-18T16:21:39;8.85;;;1.48;;
57826;SDS011;43656;57.746;11.780;2023-02-18T16:24:25;11.68;;;1.77;;
57826;SDS011;43656;57.746;11.780;2023-02-18T16:26:55;12.00;;;1.90;;
57826;SDS011;43656;57.746;11.780;2023-02-18T16:29:23;12.73;;;1.95;;
57826;SDS011;43656;57.746;11.780;2023-02-18T16:31:58;10.75;;;1.40;;
57826;SDS011;43656;57.746;11.780;2023-02-18T16:34:23;14.10;;;1.92;;
57826;SDS011;43656;57.746;11.780;2023-02-18T16:36:49;9.18;;;1.77;;
57826;SDS011;43656;57.746;11.780;2023-02-18T16:39:33;11.48;;;1.83;;
57826;SDS011;43656;57.746;11.780;2023-02-18T16:41:59;13.30;;;1.85;;
57826;SDS011;43656;57.746;11.780;2023-02-18T16:44:24;9.02;;;1.73;;
57826;SDS011;43656;57.746;11.780;2023-02-18T16:46:50;10.68;;;1.75;;
57826;SDS011;43656;57.746;11.780;2023-02-18T16:49:15;7.88;;;1.25;;
57826;SDS011;43656;57.746;11.780;2023-02-18T16:51:42;13.90;;;2.25;;
57826;SDS011;43656;57.746;11.780;2023-02-18T16:54:11;16.17;;;1.80;;
57826;SDS011;43656;57.746;11.780;2023-02-18T16:56:37;13.38;;;2.35;;
57826;SDS011;43656;57.746;11.780;2023-02-18T16:59:03;13.93;;;1.80;;
57826;SDS011;43656;57.746;11.780;2023-02-18T17:01:30;11.20;;;1.60;;
57826;SDS011;43656;57.746;11.780;2023-02-18T17:04:01;11.23;;;1.52;;
57826;SDS011;43656;57.746;11.780;2023-02-18T17:06:27;10.68;;;1.67;;